sensor_id;sensor_type;location;lat;lon;timestamp;pressure;altitude;pressure_sealevel;temperature;humidity
10688;BME280;5392;42.688;23.298;2023-02-14T00:00:42;57446.81;;;-144.48;100.00
10688;BME280;5392;42.688;23.298;2023-02-14T00:03:09;57476.03;;;-144.48;100.00
10688;BME280;5392;42.688;23.298;2023-02-14T00:05:35;57490.66;;;-144.48;100.00
10688;BME280;5392;42.688;23.298;2023-02-14T00:08:02;57434.28;;;-144.48;100.00
10688;BME280;5392;42.688;23.298;2023-02-14T00:10:28;57471.88;;;-144.48;100.00
10688;BME280;5392;42.688;23.298;2023-02-14T00:12:55;57490.66;;;-144.48;100.00
10688;BME280;5392;42.688;23.298;2023-02-14T00:15:22;57428.03;;;-144.48;100.00
10688;BME280;5392;42.688;23.298;2023-02-14T00:17:54;57444.72;;;-144.48;100.00
10688;BME280;5392;42.688;23.298;2023-02-14T00:20:22;57528.22;;;-144.48;100.00
10688;BME280;5392;42.688;23.298;2023-02-14T00:22:49;57482.31;;;-144.48;100.00
10688;BME280;5392;42.688;23.298;2023-02-14T00:25:16;57473.97;;;-144.48;100.00
10688;BME280;5392;42.688;23.298;2023-02-14T00:27:43;57465.59;;;-144.48;100.00
10688;BME280;5392;42.688;23.298;2023-02-14T00:30:11;57457.25;;;-144.48;100.00
10688;BME280;5392;42.688;23.298;2023-02-14T00:32:40;57461.44;;;-144.48;100.00
10688;BME280;5392;42.688;23.298;2023-02-14T00:35:25;57438.47;;;-144.48;100.00
10688;BME280;5392;42.688;23.298;2023-02-14T00:37:52;57455.16;;;-144.48;100.00
10688;BME280;5392;42.688;23.298;2023-02-14T00:40:19;57484.41;;;-144.48;100.00
10688;BME280;5392;42.688;23.298;2023-02-14T00:42:45;57482.31;;;-144.48;100.00
10688;BME280;5392;42.688;23.298;2023-02-14T00:45:12;57434.28;;;-144.48;100.00
10688;BME280;5392;42.688;23.298;2023-02-14T00:47:38;57496.91;;;-144.48;100.00
10688;BME280;5392;42.688;23.298;2023-02-14T00:50:05;57467.69;;;-144.48;100.00
10688;BME280;5392;42.688;23.298;2023-02-14T00:52:32;57451.00;;;-144.48;100.00
10688;BME280;5392;42.688;23.298;2023-02-14T00:54:59;57482.31;;;-144.48;100.00
10688;BME280;5392;42.688;23.298;2023-02-14T00:57:25;57467.69;;;-144.48;100.00
10688;BME280;5392;42.688;23.298;2023-02-14T00:59:52;57490.66;;;-144.48;100.00
10688;BME280;5392;42.688;23.298;2023-02-14T01:02:18;57451.00;;;-144.48;100.00
10688;BME280;5392;42.688;23.298;2023-02-14T01:04:45;57455.16;;;-144.48;100.00
10688;BME280;5392;42.688;23.298;2023-02-14T01:07:12;57442.66;;;-144.48;100.00
10688;BME280;5392;42.688;23.298;2023-02-14T01:09:38;57442.66;;;-144.48;100.00
10688;BME280;5392;42.688;23.298;2023-02-14T01:12:05;57473.97;;;-144.48;100.00
10688;BME280;5392;42.688;23.298;2023-02-14T01:14:32;57521.97;;;-144.48;100.00
10688;BME280;5392;42.688;23.298;2023-02-14T01:16:59;57505.25;;;-144.48;100.00
10688;BME280;5392;42.688;23.298;2023-02-14T01:19:25;57476.03;;;-144.48;100.00
10688;BME280;5392;42.688;23.298;2023-02-14T01:21:52;57461.44;;;-144.48;100.00
10688;BME280;5392;42.688;23.298;2023-02-14T01:24:19;57501.09;;;-144.48;100.00
10688;BME280;5392;42.688;23.298;2023-02-14T01:26:45;57471.88;;;-144.48;100.00
10688;BME280;5392;42.688;23.298;2023-02-14T01:29:12;57492.75;;;-144.48;100.00
10688;BME280;5392;42.688;23.298;2023-02-14T01:31:38;57496.91;;;-144.48;100.00
10688;BME280;5392;42.688;23.298;2023-02-14T01:34:05;57471.88;;;-144.48;100.00
10688;BME280;5392;42.688;23.298;2023-02-14T01:36:35;57465.59;;;-144.48;100.00
10688;BME280;5392;42.688;23.298;2023-02-14T01:39:09;57478.13;;;-144.48;100.00
10688;BME280;5392;42.688;23.298;2023-02-14T01:41:37;57430.13;;;-144.48;100.00
10688;BME280;5392;42.688;23.298;2023-02-14T01:44:05;57482.31;;;-144.48;100.00
10688;BME280;5392;42.688;23.298;2023-02-14T01:46:35;57459.34;;;-144.48;100.00
10688;BME280;5392;42.688;23.298;2023-02-14T01:51:54;57507.34;;;-144.48;100.00
10688;BME280;5392;42.688;23.298;2023-02-14T01:54:27;57467.69;;;-144.48;100.00
10688;BME280;5392;42.688;23.298;2023-02-14T01:56:58;57457.25;;;-144.48;100.00
10688;BME280;5392;42.688;23.298;2023-02-14T01:59:33;57438.47;;;-144.48;100.00
10688;BME280;5392;42.688;23.298;2023-02-14T02:02:01;57501.09;;;-144.48;100.00
10688;BME280;5392;42.688;23.298;2023-02-14T02:04:34;57457.25;;;-144.48;100.00
10688;BME280;5392;42.688;23.298;2023-02-14T02:07:10;57446.81;;;-144.48;100.00
10688;BME280;5392;42.688;23.298;2023-02-14T02:09:42;57496.91;;;-144.48;100.00
10688;BME280;5392;42.688;23.298;2023-02-14T02:12:12;57467.69;;;-144.48;100.00
10688;BME280;5392;42.688;23.298;2023-02-14T02:14:39;57463.53;;;-144.48;100.00
10688;BME280;5392;42.688;23.298;2023-02-14T02:55:39;57482.31;;;-144.48;100.00
10688;BME280;5392;42.688;23.298;2023-02-14T02:58:32;57471.88;;;-144.48;100.00
10688;BME280;5392;42.688;23.298;2023-02-14T03:01:03;57463.53;;;-144.48;100.00
10688;BME280;5392;42.688;23.298;2023-02-14T03:03:32;57473.97;;;-144.48;100.00
10688;BME280;5392;42.688;23.298;2023-02-14T03:06:19;57476.03;;;-144.48;100.00
10688;BME280;5392;42.688;23.298;2023-02-14T03:08:46;57465.59;;;-144.48;100.00
10688;BME280;5392;42.688;23.298;2023-02-14T03:11:13;57476.03;;;-144.48;100.00
10688;BME280;5392;42.688;23.298;2023-02-14T03:24:56;57480.22;;;-144.48;100.00
10688;BME280;5392;42.688;23.298;2023-02-14T03:27:30;57457.25;;;-144.48;100.00
10688;BME280;5392;42.688;23.298;2023-02-14T03:30:12;57503.19;;;-144.48;100.00
10688;BME280;5392;42.688;23.298;2023-02-14T03:32:46;57440.56;;;-144.48;100.00
10688;BME280;5392;42.688;23.298;2023-02-14T03:35:21;57465.59;;;-144.48;100.00
10688;BME280;5392;42.688;23.298;2023-02-14T03:37:51;57515.69;;;-144.48;100.00
10688;BME280;5392;42.688;23.298;2023-02-14T03:40:42;57461.44;;;-144.48;100.00
10688;BME280;5392;42.688;23.298;2023-02-14T03:43:17;57463.53;;;-144.48;100.00
10688;BME280;5392;42.688;23.298;2023-02-14T03:45:51;57478.13;;;-144.48;100.00
10688;BME280;5392;42.688;23.298;2023-02-14T03:48:22;57478.13;;;-144.48;100.00
10688;BME280;5392;42.688;23.298;2023-02-14T03:50:51;57467.69;;;-144.48;100.00
10688;BME280;5392;42.688;23.298;2023-02-14T03:53:22;57446.81;;;-144.48;100.00
10688;BME280;5392;42.688;23.298;2023-02-14T03:55:57;57476.03;;;-144.48;100.00
10688;BME280;5392;42.688;23.298;2023-02-14T03:58:31;57486.47;;;-144.48;100.00
10688;BME280;5392;42.688;23.298;2023-02-14T04:01:05;57444.72;;;-144.48;100.00
10688;BME280;5392;42.688;23.298;2023-02-14T04:03:38;57432.22;;;-144.48;100.00
10688;BME280;5392;42.688;23.298;2023-02-14T04:06:06;57459.34;;;-144.48;100.00
10688;BME280;5392;42.688;23.298;2023-02-14T04:08:33;57432.22;;;-144.48;100.00
10688;BME280;5392;42.688;23.298;2023-02-14T04:11:00;57494.81;;;-144.48;100.00
10688;BME280;5392;42.688;23.298;2023-02-14T04:13:28;57494.81;;;-144.48;100.00
10688;BME280;5392;42.688;23.298;2023-02-14T04:15:55;57509.44;;;-144.48;100.00
10688;BME280;5392;42.688;23.298;2023-02-14T04:18:22;57467.69;;;-144.48;100.00
10688;BME280;5392;42.688;23.298;2023-02-14T04:21:07;57459.34;;;-144.48;100.00
10688;BME280;5392;42.688;23.298;2023-02-14T04:23:33;57488.56;;;-144.48;100.00
10688;BME280;5392;42.688;23.298;2023-02-14T04:26:00;57488.56;;;-144.48;100.00
10688;BME280;5392;42.688;23.298;2023-02-14T04:28:29;57480.22;;;-144.48;100.00
10688;BME280;5392;42.688;23.298;2023-02-14T04:30:56;57461.44;;;-144.48;100.00
10688;BME280;5392;42.688;23.298;2023-02-14T04:33:26;57467.69;;;-144.48;100.00
10688;BME280;5392;42.688;23.298;2023-02-14T04:35:53;57486.47;;;-144.48;100.00
10688;BME280;5392;42.688;23.298;2023-02-14T04:38:20;57448.91;;;-144.48;100.00
10688;BME280;5392;42.688;23.298;2023-02-14T04:40:48;57501.09;;;-144.48;100.00
10688;BME280;5392;42.688;23.298;2023-02-14T04:43:15;57448.91;;;-144.48;100.00
10688;BME280;5392;42.688;23.298;2023-02-14T04:45:42;57486.47;;;-144.48;100.00
10688;BME280;5392;42.688;23.298;2023-02-14T04:48:09;57476.03;;;-144.48;100.00
10688;BME280;5392;42.688;23.298;2023-02-14T04:50:35;57465.59;;;-144.48;100.00
10688;BME280;5392;42.688;23.298;2023-02-14T04:53:02;57461.44;;;-144.48;100.00
10688;BME280;5392;42.688;23.298;2023-02-14T04:55:28;57473.97;;;-144.48;100.00
10688;BME280;5392;42.688;23.298;2023-02-14T04:57:55;57467.69;;;-144.48;100.00
10688;BME280;5392;42.688;23.298;2023-02-14T05:00:22;57461.44;;;-144.48;100.00
10688;BME280;5392;42.688;23.298;2023-02-14T05:02:49;57455.16;;;-144.48;100.00
10688;BME280;5392;42.688;23.298;2023-02-14T05:05:16;57459.34;;;-144.48;100.00
10688;BME280;5392;42.688;23.298;2023-02-14T05:07:42;57494.81;;;-144.48;100.00
10688;BME280;5392;42.688;23.298;2023-02-14T05:10:13;57492.75;;;-144.48;100.00
10688;BME280;5392;42.688;23.298;2023-02-14T05:12:40;57463.53;;;-144.48;100.00
10688;BME280;5392;42.688;23.298;2023-02-14T05:15:07;57463.53;;;-144.48;100.00
10688;BME280;5392;42.688;23.298;2023-02-14T05:17:34;57453.09;;;-144.48;100.00
10688;BME280;5392;42.688;23.298;2023-02-14T05:20:03;57455.16;;;-144.48;100.00
10688;BME280;5392;42.688;23.298;2023-02-14T05:22:31;57415.50;;;-144.48;100.00
10688;BME280;5392;42.688;23.298;2023-02-14T05:24:57;57471.88;;;-144.48;100.00
10688;BME280;5392;42.688;23.298;2023-02-14T05:27:24;57473.97;;;-144.48;100.00
10688;BME280;5392;42.688;23.298;2023-02-14T05:29:51;57484.41;;;-144.48;100.00
10688;BME280;5392;42.688;23.298;2023-02-14T05:32:18;57438.47;;;-144.48;100.00
10688;BME280;5392;42.688;23.298;2023-02-14T05:34:44;57507.34;;;-144.48;100.00
10688;BME280;5392;42.688;23.298;2023-02-14T05:37:11;57469.78;;;-144.48;100.00
10688;BME280;5392;42.688;23.298;2023-02-14T05:39:38;57473.97;;;-144.48;100.00
10688;BME280;5392;42.688;23.298;2023-02-14T05:42:04;57438.47;;;-144.48;100.00
10688;BME280;5392;42.688;23.298;2023-02-14T05:44:31;57467.69;;;-144.48;100.00
10688;BME280;5392;42.688;23.298;2023-02-14T05:46:58;57476.03;;;-144.48;100.00
10688;BME280;5392;42.688;23.298;2023-02-14T05:49:25;57478.13;;;-144.48;100.00
10688;BME280;5392;42.688;23.298;2023-02-14T05:51:51;57446.81;;;-144.48;100.00
10688;BME280;5392;42.688;23.298;2023-02-14T05:54:18;57440.56;;;-144.48;100.00
10688;BME280;5392;42.688;23.298;2023-02-14T05:56:44;57478.13;;;-144.48;100.00
10688;BME280;5392;42.688;23.298;2023-02-14T05:59:11;57455.16;;;-144.48;100.00
10688;BME280;5392;42.688;23.298;2023-02-14T06:01:39;57465.59;;;-144.48;99.41
10688;BME280;5392;42.688;23.298;2023-02-14T06:04:06;57455.16;;;-144.48;99.33
10688;BME280;5392;42.688;23.298;2023-02-14T06:06:34;57438.47;;;-144.48;99.48
10688;BME280;5392;42.688;23.298;2023-02-14T06:09:02;57482.31;;;-144.48;100.00
10688;BME280;5392;42.688;23.298;2023-02-14T06:11:28;57486.47;;;-144.48;100.00
10688;BME280;5392;42.688;23.298;2023-02-14T06:13:55;57496.91;;;-144.48;100.00
10688;BME280;5392;42.688;23.298;2023-02-14T06:16:22;57469.78;;;-144.48;100.00
10688;BME280;5392;42.688;23.298;2023-02-14T06:18:49;57480.22;;;-144.48;100.00
10688;BME280;5392;42.688;23.298;2023-02-14T06:21:15;57519.88;;;-144.48;100.00
10688;BME280;5392;42.688;23.298;2023-02-14T06:23:42;57434.28;;;-144.48;100.00
10688;BME280;5392;42.688;23.298;2023-02-14T06:26:08;57488.56;;;-144.48;100.00
10688;BME280;5392;42.688;23.298;2023-02-14T06:28:35;57488.56;;;-144.48;99.68
10688;BME280;5392;42.688;23.298;2023-02-14T06:31:02;57496.91;;;-144.48;99.29
10688;BME280;5392;42.688;23.298;2023-02-14T06:33:29;57480.22;;;-144.48;99.26
10688;BME280;5392;42.688;23.298;2023-02-14T06:35:56;57471.88;;;-144.48;98.85
10688;BME280;5392;42.688;23.298;2023-02-14T06:38:22;57499.00;;;-144.48;98.34
10688;BME280;5392;42.688;23.298;2023-02-14T06:40:49;57469.78;;;-144.48;98.17
10688;BME280;5392;42.688;23.298;2023-02-14T06:43:16;57438.47;;;-144.48;97.82
10688;BME280;5392;42.688;23.298;2023-02-14T06:45:42;57486.47;;;-144.48;97.60
10688;BME280;5392;42.688;23.298;2023-02-14T06:48:09;57442.66;;;-144.48;97.26
10688;BME280;5392;42.688;23.298;2023-02-14T06:50:35;57428.03;;;-144.48;97.79
10688;BME280;5392;42.688;23.298;2023-02-14T06:53:02;57469.78;;;-144.48;97.22
10688;BME280;5392;42.688;23.298;2023-02-14T06:55:29;57428.03;;;-144.48;95.05
10688;BME280;5392;42.688;23.298;2023-02-14T06:57:56;57476.03;;;-144.48;94.31
10688;BME280;5392;42.688;23.298;2023-02-14T07:00:23;57448.91;;;-144.48;94.90
10688;BME280;5392;42.688;23.298;2023-02-14T07:02:49;57415.50;;;-144.48;96.40
10688;BME280;5392;42.688;23.298;2023-02-14T07:05:16;57476.03;;;-144.48;96.94
10688;BME280;5392;42.688;23.298;2023-02-14T07:07:44;57473.97;;;-144.48;97.32
10688;BME280;5392;42.688;23.298;2023-02-14T07:10:11;57419.69;;;-144.48;98.05
10688;BME280;5392;42.688;23.298;2023-02-14T07:12:38;57469.78;;;-144.48;98.91
10688;BME280;5392;42.688;23.298;2023-02-14T07:15:10;57455.16;;;-144.48;99.55
10688;BME280;5392;42.688;23.298;2023-02-14T07:17:38;57478.13;;;-144.48;100.00
10688;BME280;5392;42.688;23.298;2023-02-14T07:20:05;57488.56;;;-144.48;100.00
10688;BME280;5392;42.688;23.298;2023-02-14T07:22:33;57469.78;;;-144.48;100.00
10688;BME280;5392;42.688;23.298;2023-02-14T07:24:59;57480.22;;;-144.48;100.00
10688;BME280;5392;42.688;23.298;2023-02-14T07:27:26;57423.88;;;-144.48;100.00
10688;BME280;5392;42.688;23.298;2023-02-14T07:29:53;57484.41;;;-144.48;100.00
10688;BME280;5392;42.688;23.298;2023-02-14T07:32:20;57490.66;;;-144.48;100.00
10688;BME280;5392;42.688;23.298;2023-02-14T07:34:49;57507.34;;;-144.48;100.00
10688;BME280;5392;42.688;23.298;2023-02-14T07:37:16;57490.66;;;-144.48;100.00
10688;BME280;5392;42.688;23.298;2023-02-14T07:39:43;57484.41;;;-144.48;100.00
10688;BME280;5392;42.688;23.298;2023-02-14T07:42:11;57444.72;;;-144.48;100.00
10688;BME280;5392;42.688;23.298;2023-02-14T07:44:38;57455.16;;;-144.48;100.00
10688;BME280;5392;42.688;23.298;2023-02-14T07:47:08;57455.16;;;-144.48;100.00
10688;BME280;5392;42.688;23.298;2023-02-14T07:49:35;57476.03;;;-144.48;100.00
10688;BME280;5392;42.688;23.298;2023-02-14T07:52:03;57486.47;;;-144.48;100.00
10688;BME280;5392;42.688;23.298;2023-02-14T07:54:30;57442.66;;;-144.48;100.00
10688;BME280;5392;42.688;23.298;2023-02-14T07:56:56;57476.03;;;-144.48;100.00
10688;BME280;5392;42.688;23.298;2023-02-14T07:59:23;57442.66;;;-144.48;100.00
10688;BME280;5392;42.688;23.298;2023-02-14T08:01:51;57467.69;;;-144.48;100.00
10688;BME280;5392;42.688;23.298;2023-02-14T08:04:18;57461.44;;;-144.48;100.00
10688;BME280;5392;42.688;23.298;2023-02-14T08:06:45;57501.09;;;-144.48;100.00
10688;BME280;5392;42.688;23.298;2023-02-14T08:09:11;57476.03;;;-144.48;100.00
10688;BME280;5392;42.688;23.298;2023-02-14T08:11:54;57486.47;;;-144.48;100.00
10688;BME280;5392;42.688;23.298;2023-02-14T08:14:40;57509.44;;;-144.48;100.00
10688;BME280;5392;42.688;23.298;2023-02-14T08:17:08;57455.16;;;-144.48;100.00
10688;BME280;5392;42.688;23.298;2023-02-14T08:19:35;57513.63;;;-144.48;100.00
10688;BME280;5392;42.688;23.298;2023-02-14T08:22:03;57469.78;;;-144.48;100.00
10688;BME280;5392;42.688;23.298;2023-02-14T08:24:30;57446.81;;;-144.48;100.00
10688;BME280;5392;42.688;23.298;2023-02-14T08:26:57;57476.03;;;-144.48;100.00
10688;BME280;5392;42.688;23.298;2023-02-14T08:29:24;57471.88;;;-144.48;100.00
10688;BME280;5392;42.688;23.298;2023-02-14T08:31:51;57488.56;;;-144.48;100.00
10688;BME280;5392;42.688;23.298;2023-02-14T08:34:19;57461.44;;;-144.48;100.00
10688;BME280;5392;42.688;23.298;2023-02-14T08:36:45;57488.56;;;-144.48;100.00
10688;BME280;5392;42.688;23.298;2023-02-14T08:39:13;57471.88;;;-144.48;100.00
10688;BME280;5392;42.688;23.298;2023-02-14T08:41:40;57461.44;;;-144.48;100.00
10688;BME280;5392;42.688;23.298;2023-02-14T08:44:07;57507.34;;;-144.48;100.00
10688;BME280;5392;42.688;23.298;2023-02-14T08:46:33;57421.78;;;-144.48;100.00
10688;BME280;5392;42.688;23.298;2023-02-14T08:49:00;57501.09;;;-144.48;100.00
10688;BME280;5392;42.688;23.298;2023-02-14T08:51:27;57469.78;;;-144.48;100.00
10688;BME280;5392;42.688;23.298;2023-02-14T08:53:53;57490.66;;;-144.48;100.00
10688;BME280;5392;42.688;23.298;2023-02-14T08:56:21;57465.59;;;-144.48;100.00
10688;BME280;5392;42.688;23.298;2023-02-14T08:58:51;57409.25;;;-144.48;100.00
10688;BME280;5392;42.688;23.298;2023-02-14T09:01:18;57480.22;;;-144.48;100.00
10688;BME280;5392;42.688;23.298;2023-02-14T09:03:45;57436.38;;;-144.48;100.00
10688;BME280;5392;42.688;23.298;2023-02-14T09:06:13;57476.03;;;-144.48;100.00
10688;BME280;5392;42.688;23.298;2023-02-14T09:08:43;57488.56;;;-144.48;100.00
10688;BME280;5392;42.688;23.298;2023-02-14T09:11:16;57494.81;;;-144.48;100.00
10688;BME280;5392;42.688;23.298;2023-02-14T09:13:45;57480.22;;;-144.48;100.00
10688;BME280;5392;42.688;23.298;2023-02-14T09:16:13;57459.34;;;-144.48;100.00
10688;BME280;5392;42.688;23.298;2023-02-14T09:18:42;57519.88;;;-144.48;100.00
10688;BME280;5392;42.688;23.298;2023-02-14T09:21:14;57482.31;;;-144.48;100.00
10688;BME280;5392;42.688;23.298;2023-02-14T09:23:41;57451.00;;;-144.48;100.00
10688;BME280;5392;42.688;23.298;2023-02-14T09:26:10;57423.88;;;-144.48;100.00
10688;BME280;5392;42.688;23.298;2023-02-14T09:28:38;57496.91;;;-144.48;100.00
10688;BME280;5392;42.688;23.298;2023-02-14T09:31:22;57486.47;;;-144.48;100.00
10688;BME280;5392;42.688;23.298;2023-02-14T09:33:50;57455.16;;;-144.48;100.00
10688;BME280;5392;42.688;23.298;2023-02-14T09:36:17;57461.44;;;-144.48;100.00
10688;BME280;5392;42.688;23.298;2023-02-14T09:39:02;57473.97;;;-144.48;100.00
10688;BME280;5392;42.688;23.298;2023-02-14T09:46:35;57457.25;;;-144.48;100.00
10688;BME280;5392;42.688;23.298;2023-02-14T09:49:07;57471.88;;;-144.48;100.00
10688;BME280;5392;42.688;23.298;2023-02-14T09:51:44;57488.56;;;-144.48;100.00
10688;BME280;5392;42.688;23.298;2023-02-14T09:54:18;57486.47;;;-144.48;100.00
10688;BME280;5392;42.688;23.298;2023-02-14T09:59:53;57486.47;;;-144.48;100.00
10688;BME280;5392;42.688;23.298;2023-02-14T10:05:11;57471.88;;;-144.48;100.00
10688;BME280;5392;42.688;23.298;2023-02-14T10:15:45;57455.16;;;-144.48;100.00
10688;BME280;5392;42.688;23.298;2023-02-14T10:18:19;57442.66;;;-144.48;100.00
10688;BME280;5392;42.688;23.298;2023-02-14T10:20:50;57480.22;;;-144.48;100.00
10688;BME280;5392;42.688;23.298;2023-02-14T10:23:44;57482.31;;;-144.48;100.00
10688;BME280;5392;42.688;23.298;2023-02-14T10:26:37;57505.25;;;-144.48;100.00
10688;BME280;5392;42.688;23.298;2023-02-14T10:29:10;57430.13;;;-144.48;100.00
10688;BME280;5392;42.688;23.298;2023-02-14T10:37:34;57471.88;;;-144.48;100.00
10688;BME280;5392;42.688;23.298;2023-02-14T10:46:00;57476.03;;;-144.48;100.00
10688;BME280;5392;42.688;23.298;2023-02-14T10:51:23;57492.75;;;-144.48;100.00
10688;BME280;5392;42.688;23.298;2023-02-14T10:54:19;57507.34;;;-144.48;100.00
10688;BME280;5392;42.688;23.298;2023-02-14T10:57:11;57446.81;;;-144.48;100.00
10688;BME280;5392;42.688;23.298;2023-02-14T11:02:36;57455.16;;;-144.48;100.00
10688;BME280;5392;42.688;23.298;2023-02-14T11:05:06;57457.25;;;-144.48;100.00
10688;BME280;5392;42.688;23.298;2023-02-14T11:07:33;57496.91;;;-144.48;100.00
10688;BME280;5392;42.688;23.298;2023-02-14T11:10:00;57501.09;;;-144.48;100.00
10688;BME280;5392;42.688;23.298;2023-02-14T11:12:38;57476.03;;;-144.48;100.00
10688;BME280;5392;42.688;23.298;2023-02-14T11:15:09;57496.91;;;-144.48;100.00
10688;BME280;5392;42.688;23.298;2023-02-14T11:17:37;57451.00;;;-144.48;100.00
10688;BME280;5392;42.688;23.298;2023-02-14T11:20:26;57471.88;;;-144.48;100.00
10688;BME280;5392;42.688;23.298;2023-02-14T11:22:55;57453.09;;;-144.48;100.00
10688;BME280;5392;42.688;23.298;2023-02-14T11:25:26;57457.25;;;-144.48;100.00
10688;BME280;5392;42.688;23.298;2023-02-14T11:28:07;57442.66;;;-144.48;100.00
10688;BME280;5392;42.688;23.298;2023-02-14T11:30:40;57459.34;;;-144.48;100.00
10688;BME280;5392;42.688;23.298;2023-02-14T11:33:21;57453.09;;;-144.48;100.00
10688;BME280;5392;42.688;23.298;2023-02-14T11:35:50;57467.69;;;-144.48;100.00
10688;BME280;5392;42.688;23.298;2023-02-14T11:38:30;57486.47;;;-144.48;100.00
10688;BME280;5392;42.688;23.298;2023-02-14T11:40:57;57463.53;;;-144.48;100.00
10688;BME280;5392;42.688;23.298;2023-02-14T11:43:34;57457.25;;;-144.48;100.00
10688;BME280;5392;42.688;23.298;2023-02-14T11:46:11;57480.22;;;-144.48;99.77
10688;BME280;5392;42.688;23.298;2023-02-14T11:49:03;57492.75;;;-144.48;98.85
10688;BME280;5392;42.688;23.298;2023-02-14T11:51:33;57457.25;;;-144.48;98.14
10688;BME280;5392;42.688;23.298;2023-02-14T11:54:02;57461.44;;;-144.48;96.75
10688;BME280;5392;42.688;23.298;2023-02-14T11:56:48;57503.19;;;-144.48;96.33
10688;BME280;5392;42.688;23.298;2023-02-14T12:01:52;57438.47;;;-144.48;95.68
10688;BME280;5392;42.688;23.298;2023-02-14T12:04:26;57461.44;;;-144.48;95.50
10688;BME280;5392;42.688;23.298;2023-02-14T12:07:15;57455.16;;;-144.48;94.84
10688;BME280;5392;42.688;23.298;2023-02-14T12:09:45;57505.25;;;-144.48;94.21
10688;BME280;5392;42.688;23.298;2023-02-14T12:12:21;57463.53;;;-144.48;94.95
10688;BME280;5392;42.688;23.298;2023-02-14T12:14:49;57476.03;;;-144.48;94.93
10688;BME280;5392;42.688;23.298;2023-02-14T12:17:32;57453.09;;;-144.48;94.26
10688;BME280;5392;42.688;23.298;2023-02-14T12:22:57;57453.09;;;-144.48;93.66
10688;BME280;5392;42.688;23.298;2023-02-14T12:25:24;57488.56;;;-144.48;94.65
10688;BME280;5392;42.688;23.298;2023-02-14T12:28:05;57501.09;;;-144.48;93.59
10688;BME280;5392;42.688;23.298;2023-02-14T12:30:35;57455.16;;;-144.48;93.48
10688;BME280;5392;42.688;23.298;2023-02-14T12:33:01;57486.47;;;-144.48;92.60
10688;BME280;5392;42.688;23.298;2023-02-14T12:43:56;57465.59;;;-144.48;93.08
10688;BME280;5392;42.688;23.298;2023-02-14T12:46:41;57476.03;;;-144.48;93.72
10688;BME280;5392;42.688;23.298;2023-02-14T12:52:43;57448.91;;;-144.48;93.57
10688;BME280;5392;42.688;23.298;2023-02-14T12:55:33;57484.41;;;-144.48;93.21
10688;BME280;5392;42.688;23.298;2023-02-14T12:58:10;57469.78;;;-144.48;93.67
10688;BME280;5392;42.688;23.298;2023-02-14T13:06:58;57436.38;;;-144.48;93.50
10688;BME280;5392;42.688;23.298;2023-02-14T13:09:35;57517.78;;;-144.48;94.07
10688;BME280;5392;42.688;23.298;2023-02-14T13:15:19;57423.88;;;-144.48;95.19
10688;BME280;5392;42.688;23.298;2023-02-14T13:22:51;57503.19;;;-144.48;97.28
10688;BME280;5392;42.688;23.298;2023-02-14T13:25:34;57463.53;;;-144.48;96.68
10688;BME280;5392;42.688;23.298;2023-02-14T13:28:06;57442.66;;;-144.48;96.85
10688;BME280;5392;42.688;23.298;2023-02-14T13:30:36;57473.97;;;-144.48;96.63
10688;BME280;5392;42.688;23.298;2023-02-14T13:33:19;57482.31;;;-144.48;96.68
10688;BME280;5392;42.688;23.298;2023-02-14T13:35:47;57438.47;;;-144.48;96.56
10688;BME280;5392;42.688;23.298;2023-02-14T13:38:16;57507.34;;;-144.48;96.97
10688;BME280;5392;42.688;23.298;2023-02-14T13:40:44;57490.66;;;-144.48;96.57
10688;BME280;5392;42.688;23.298;2023-02-14T13:43:11;57478.13;;;-144.48;96.01
10688;BME280;5392;42.688;23.298;2023-02-14T13:45:51;57453.09;;;-144.48;95.96
10688;BME280;5392;42.688;23.298;2023-02-14T13:48:22;57524.06;;;-144.48;97.30
10688;BME280;5392;42.688;23.298;2023-02-14T13:53:44;57451.00;;;-144.48;97.02
10688;BME280;5392;42.688;23.298;2023-02-14T13:59:00;57482.31;;;-144.48;95.53
10688;BME280;5392;42.688;23.298;2023-02-14T14:01:41;57432.22;;;-144.48;95.84
10688;BME280;5392;42.688;23.298;2023-02-14T14:20:29;57467.69;;;-144.48;99.61
10688;BME280;5392;42.688;23.298;2023-02-14T14:22:57;57473.97;;;-144.48;99.10
10688;BME280;5392;42.688;23.298;2023-02-14T14:25:32;57459.34;;;-144.48;99.49
10688;BME280;5392;42.688;23.298;2023-02-14T14:28:17;57459.34;;;-144.48;100.00
10688;BME280;5392;42.688;23.298;2023-02-14T14:30:45;57482.31;;;-144.48;100.00
10688;BME280;5392;42.688;23.298;2023-02-14T14:33:25;57459.34;;;-144.48;100.00
10688;BME280;5392;42.688;23.298;2023-02-14T14:35:54;57515.69;;;-144.48;100.00
10688;BME280;5392;42.688;23.298;2023-02-14T14:38:21;57492.75;;;-144.48;100.00
10688;BME280;5392;42.688;23.298;2023-02-14T14:40:49;57490.66;;;-144.48;100.00
10688;BME280;5392;42.688;23.298;2023-02-14T14:43:35;57494.81;;;-144.48;100.00
10688;BME280;5392;42.688;23.298;2023-02-14T14:46:07;57513.63;;;-144.48;100.00
10688;BME280;5392;42.688;23.298;2023-02-14T14:48:38;57496.91;;;-144.48;100.00
10688;BME280;5392;42.688;23.298;2023-02-14T14:51:08;57467.69;;;-144.48;100.00
10688;BME280;5392;42.688;23.298;2023-02-14T14:53:50;57476.03;;;-144.48;100.00
10688;BME280;5392;42.688;23.298;2023-02-14T14:56:28;57507.34;;;-144.48;100.00
10688;BME280;5392;42.688;23.298;2023-02-14T14:58:57;57463.53;;;-144.48;100.00
10688;BME280;5392;42.688;23.298;2023-02-14T15:01:35;57457.25;;;-144.48;100.00
10688;BME280;5392;42.688;23.298;2023-02-14T15:04:32;57451.00;;;-144.48;100.00
10688;BME280;5392;42.688;23.298;2023-02-14T15:09:52;57446.81;;;-144.48;100.00
10688;BME280;5392;42.688;23.298;2023-02-14T15:12:21;57492.75;;;-144.48;100.00
10688;BME280;5392;42.688;23.298;2023-02-14T15:15:13;57461.44;;;-144.48;100.00